Time;durP1;ratioP1;P1;durP2;ratioP2;P2;SDS_P1;SDS_P2;PMS_P1;PMS_P2;Temp;Humidity;BMP_temperature;BMP_pressure;BME280_temperature;BME280_humidity;BME280_pressure;Samples;Min_cycle;Max_cycle;Signal;HPM_P1;HPM_P2
2021/10/30 00:01:50;;;;;;;42.95;23.20;;;1.70;99.90;;;;;;5108458;28;20110;-77
2021/10/30 00:04:16;;;;;;;47.53;26.23;;;1.60;99.90;;;;;;5108096;28;20038;-76
2021/10/30 00:06:41;;;;;;;51.17;25.52;;;1.60;99.90;;;;;;5108339;28;20028;-76
2021/10/30 00:09:07;;;;;;;43.55;24.38;;;1.60;99.90;;;;;;5108206;28;20020;-76
2021/10/30 00:11:33;;;;;;;57.30;25.42;;;1.50;99.90;;;;;;5096562;28;20039;-76
2021/10/30 00:13:58;;;;;;;48.90;25.40;;;1.50;99.90;;;;;;5095614;28;20031;-76
2021/10/30 00:16:24;;;;;;;49.42;26.83;;;1.40;99.90;;;;;;5094528;28;20111;-76
2021/10/30 00:18:49;;;;;;;50.45;25.95;;;1.40;99.90;;;;;;5095724;28;20113;-76
2021/10/30 00:21:15;;;;;;;49.50;25.65;;;1.40;99.90;;;;;;5095753;28;20146;-76
2021/10/30 00:23:41;;;;;;;71.22;33.45;;;1.40;99.90;;;;;;5094120;28;20048;-76
2021/10/30 00:26:07;;;;;;;49.35;29.08;;;1.40;99.90;;;;;;5095624;28;20090;-76
2021/10/30 00:28:32;;;;;;;54.50;27.98;;;1.40;99.90;;;;;;5095563;28;20028;-76
2021/10/30 00:30:58;;;;;;;58.08;30.00;;;1.40;99.90;;;;;;5095231;28;20024;-76
2021/10/30 00:33:24;;;;;;;51.08;28.08;;;1.40;99.90;;;;;;5094209;28;20020;-77
2021/10/30 00:35:49;;;;;;;46.97;26.17;;;1.40;99.90;;;;;;5095437;28;20028;-77
2021/10/30 00:38:15;;;;;;;51.28;25.98;;;1.40;99.90;;;;;;5095293;28;20040;-77
2021/10/30 00:40:40;;;;;;;44.75;24.00;;;1.40;99.90;;;;;;5095300;28;20469;-77
2021/10/30 00:43:06;;;;;;;51.72;26.98;;;1.30;99.90;;;;;;5095294;28;20063;-77
2021/10/30 00:45:32;;;;;;;46.28;25.60;;;1.30;99.90;;;;;;5095235;28;20058;-77
2021/10/30 00:47:58;;;;;;;57.25;28.67;;;1.30;99.90;;;;;;5094021;28;20389;-77
2021/10/30 00:50:23;;;;;;;56.05;28.90;;;1.20;99.90;;;;;;5095129;28;20020;-77
2021/10/30 00:52:52;;;;;;;56.58;30.77;;;1.20;99.90;;;;;;5094919;28;20047;-77
2021/10/30 00:55:23;;;;;;;70.63;34.70;;;1.10;99.90;;;;;;5093721;28;20032;-77
2021/10/30 00:57:50;;;;;;;58.17;29.85;;;1.20;99.90;;;;;;5093805;28;20027;-76
2021/10/30 01:00:16;;;;;;;54.03;29.98;;;1.20;99.90;;;;;;5093622;28;20081;-77
2021/10/30 01:02:42;;;;;;;72.20;34.03;;;1.10;99.90;;;;;;5094957;28;20020;-77
2021/10/30 01:05:08;;;;;;;62.75;32.50;;;1.20;99.90;;;;;;5094902;28;20028;-77
2021/10/30 01:07:34;;;;;;;54.17;29.30;;;1.20;99.90;;;;;;5094866;28;20025;-77
2021/10/30 01:10:00;;;;;;;49.08;27.13;;;1.20;99.90;;;;;;5094663;28;20063;-77
2021/10/30 01:12:26;;;;;;;51.63;26.85;;;1.20;99.90;;;;;;5094710;28;20070;-77
2021/10/30 01:14:52;;;;;;;54.90;27.13;;;1.10;99.90;;;;;;5094385;28;20466;-77
2021/10/30 01:17:18;;;;;;;45.85;25.80;;;1.10;99.90;;;;;;5094656;28;20415;-77
2021/10/30 01:19:44;;;;;;;51.53;27.50;;;1.10;99.90;;;;;;5094652;28;20116;-76
2021/10/30 01:22:10;;;;;;;49.13;26.38;;;1.10;99.90;;;;;;5092293;28;20047;-77
2021/10/30 01:24:35;;;;;;;46.22;26.70;;;1.00;99.90;;;;;;5093100;28;20024;-76
2021/10/30 01:27:01;;;;;;;52.03;27.63;;;1.00;99.90;;;;;;5094585;28;20032;-77
2021/10/30 01:29:29;;;;;;;47.38;24.58;;;1.00;99.90;;;;;;5092831;28;20074;-76
2021/10/30 01:31:54;;;;;;;48.22;25.25;;;1.00;99.90;;;;;;5092735;28;20392;-76
2021/10/30 01:34:26;;;;;;;49.03;27.00;;;1.00;99.90;;;;;;5094178;28;20035;-76
2021/10/30 01:36:52;;;;;;;50.22;24.20;;;0.90;99.90;;;;;;5094407;28;20452;-76
2021/10/30 01:39:17;;;;;;;63.95;30.52;;;0.90;99.90;;;;;;5094021;28;20056;-76
2021/10/30 01:41:44;;;;;;;50.90;28.05;;;0.90;99.90;;;;;;5094225;28;20389;-75
2021/10/30 01:44:10;;;;;;;51.63;25.80;;;0.90;99.90;;;;;;5093841;28;20092;-76
2021/10/30 01:46:36;;;;;;;42.83;24.70;;;0.90;99.90;;;;;;5094091;28;20520;-76
2021/10/30 01:49:02;;;;;;;51.78;26.17;;;0.90;99.90;;;;;;5094094;28;20051;-76
2021/10/30 01:51:28;;;;;;;47.20;25.85;;;1.00;99.90;;;;;;5093705;28;20028;-76
2021/10/30 01:53:55;;;;;;;43.13;23.15;;;0.90;99.90;;;;;;5093978;28;20020;-75
2021/10/30 01:56:21;;;;;;;47.95;22.70;;;0.90;99.90;;;;;;5092560;28;20393;-76
2021/10/30 01:58:46;;;;;;;44.25;23.67;;;1.00;99.90;;;;;;5093801;28;20043;-77
2021/10/30 02:01:12;;;;;;;43.85;23.02;;;1.00;99.90;;;;;;5093214;28;20036;-76
2021/10/30 02:03:38;;;;;;;51.85;26.23;;;1.00;99.90;;;;;;5093312;28;20028;-76
2021/10/30 02:06:05;;;;;;;38.22;19.17;;;1.00;99.90;;;;;;5093701;28;20028;-76
2021/10/30 02:08:31;;;;;;;39.10;19.52;;;1.00;99.90;;;;;;5093600;28;20020;-76
2021/10/30 02:10:57;;;;;;;30.75;17.65;;;1.00;99.90;;;;;;5093645;28;20024;-76
2021/10/30 02:13:23;;;;;;;33.17;17.92;;;1.10;99.90;;;;;;5093511;28;20024;-77
2021/10/30 02:15:50;;;;;;;34.22;18.35;;;1.20;99.90;;;;;;5092322;28;20146;-76
2021/10/30 02:18:17;;;;;;;34.55;18.60;;;1.10;99.90;;;;;;5091608;28;20047;-77
2021/10/30 02:20:43;;;;;;;40.92;22.42;;;1.20;99.90;;;;;;5093429;28;20028;-75
2021/10/30 02:23:09;;;;;;;46.47;23.15;;;1.10;99.90;;;;;;5093435;28;20066;-76
2021/10/30 02:25:36;;;;;;;47.55;25.13;;;1.00;99.90;;;;;;5093338;28;20024;-75
2021/10/30 02:28:02;;;;;;;42.78;23.73;;;0.90;99.90;;;;;;5093457;28;20069;-76
2021/10/30 02:30:28;;;;;;;42.13;23.17;;;0.80;99.90;;;;;;5092927;28;20024;-75
2021/10/30 02:32:54;;;;;;;45.42;24.42;;;0.80;99.90;;;;;;5079176;28;20394;-76
2021/10/30 02:35:19;;;;;;;40.75;24.85;;;0.70;99.90;;;;;;5086064;28;20051;-76
2021/10/30 02:37:45;;;;;;;48.55;24.48;;;0.70;99.90;;;;;;5093224;28;20533;-76
2021/10/30 02:40:11;;;;;;;53.15;25.38;;;0.70;99.90;;;;;;5077240;28;20028;-76
2021/10/30 02:42:38;;;;;;;44.88;23.38;;;0.60;99.90;;;;;;5072934;28;20040;-76
2021/10/30 02:45:05;;;;;;;48.25;25.67;;;0.60;99.90;;;;;;5074853;28;20036;-76
2021/10/30 02:47:31;;;;;;;51.20;28.10;;;0.60;99.90;;;;;;5091768;28;20023;-76
2021/10/30 02:49:57;;;;;;;50.58;27.67;;;0.60;99.90;;;;;;5092855;28;20461;-76
2021/10/30 02:52:22;;;;;;;55.05;27.17;;;0.60;99.90;;;;;;5087818;28;20032;-76
2021/10/30 02:54:48;;;;;;;50.95;26.85;;;0.50;99.90;;;;;;5071490;28;20032;-76
2021/10/30 02:57:14;;;;;;;50.38;26.88;;;0.50;99.90;;;;;;5072873;28;20045;-77
2021/10/30 02:59:40;;;;;;;53.80;27.27;;;0.50;99.90;;;;;;5077960;28;20058;-75
2021/10/30 03:02:05;;;;;;;51.63;27.48;;;0.50;99.90;;;;;;5093015;28;20035;-76
2021/10/30 03:04:32;;;;;;;53.53;28.88;;;0.50;99.90;;;;;;5092909;28;20070;-75
2021/10/30 03:06:57;;;;;;;55.03;28.08;;;0.50;99.90;;;;;;5092902;28;20107;-75
2021/10/30 03:09:23;;;;;;;54.28;28.60;;;0.50;99.90;;;;;;5092654;28;20118;-76
2021/10/30 03:11:49;;;;;;;51.30;26.00;;;0.40;99.90;;;;;;5092904;28;20028;-77
2021/10/30 03:14:14;;;;;;;50.13;26.10;;;0.40;99.90;;;;;;5092774;28;20032;-75
2021/10/30 03:16:40;;;;;;;47.42;25.30;;;0.40;99.90;;;;;;5091569;28;20031;-76
2021/10/30 03:19:06;;;;;;;45.03;23.52;;;0.40;99.90;;;;;;5091383;28;20036;-76
2021/10/30 03:21:32;;;;;;;52.75;26.02;;;0.40;99.90;;;;;;5092776;28;20025;-76
2021/10/30 03:23:58;;;;;;;52.75;27.58;;;0.40;99.90;;;;;;5091450;28;20024;-75
2021/10/30 03:26:24;;;;;;;41.60;23.98;;;0.40;99.90;;;;;;5091434;28;20028;-76
2021/10/30 03:28:50;;;;;;;47.45;25.83;;;0.40;99.90;;;;;;5092426;28;20095;-76
2021/10/30 03:31:16;;;;;;;38.92;22.23;;;0.40;99.90;;;;;;5091393;28;20070;-76
2021/10/30 03:33:41;;;;;;;37.85;20.70;;;0.40;99.90;;;;;;5092686;28;20028;-76
2021/10/30 03:36:07;;;;;;;36.22;19.63;;;0.50;99.90;;;;;;5091326;28;20035;-76
2021/10/30 03:38:33;;;;;;;34.60;17.60;;;0.50;99.90;;;;;;5092566;28;20400;-76
2021/10/30 03:40:58;;;;;;;28.25;17.25;;;0.60;99.90;;;;;;5092585;28;20020;-76
2021/10/30 03:43:24;;;;;;;29.83;16.90;;;0.70;99.90;;;;;;5092600;28;20032;-76
2021/10/30 03:45:50;;;;;;;31.20;16.05;;;0.80;99.90;;;;;;5092978;28;20022;-76
2021/10/30 03:48:20;;;;;;;28.08;15.27;;;0.80;99.90;;;;;;5095116;28;20051;-75
2021/10/30 03:50:47;;;;;;;27.30;14.32;;;0.80;99.90;;;;;;5096323;28;20054;-75
2021/10/30 03:53:12;;;;;;;27.83;15.88;;;0.90;99.90;;;;;;5095103;28;20051;-76
2021/10/30 03:55:38;;;;;;;26.40;14.43;;;1.00;99.90;;;;;;5096182;28;20408;-76
2021/10/30 03:58:05;;;;;;;33.85;17.30;;;1.00;99.90;;;;;;5090885;28;20020;-76
2021/10/30 04:00:31;;;;;;;29.05;14.93;;;0.90;99.90;;;;;;5094670;28;20046;-76
2021/10/30 04:02:57;;;;;;;24.80;14.18;;;0.90;99.90;;;;;;5094704;28;20019;-76
2021/10/30 04:05:23;;;;;;;31.48;18.50;;;0.90;99.90;;;;;;5092755;28;20032;-76
2021/10/30 04:07:49;;;;;;;29.63;16.92;;;0.80;99.90;;;;;;5088399;28;20056;-76
2021/10/30 04:10:14;;;;;;;43.25;21.65;;;0.80;99.90;;;;;;5077175;28;21317;-76
2021/10/30 04:12:40;;;;;;;36.83;21.33;;;0.70;99.90;;;;;;5081061;28;20024;-76
2021/10/30 04:15:07;;;;;;;46.72;25.13;;;0.60;99.90;;;;;;5080888;28;20043;-76
2021/10/30 04:17:33;;;;;;;48.38;24.92;;;0.50;99.90;;;;;;5076817;28;20043;-76
2021/10/30 04:19:58;;;;;;;53.92;29.65;;;0.50;99.90;;;;;;5080037;28;20043;-76
2021/10/30 04:22:24;;;;;;;61.38;31.20;;;0.50;99.90;;;;;;5079158;28;20017;-76
2021/10/30 04:24:50;;;;;;;59.67;32.20;;;0.40;99.90;;;;;;5080088;28;20055;-75
2021/10/30 04:27:16;;;;;;;108.47;53.90;;;0.40;99.90;;;;;;5076598;28;20035;-76
2021/10/30 04:29:41;;;;;;;61.40;31.98;;;0.40;99.90;;;;;;5081644;28;20043;-75
2021/10/30 04:32:09;;;;;;;40.08;20.85;;;0.40;99.90;;;;;;5085021;28;20028;-75
2021/10/30 04:34:47;;;;;;;31.60;17.48;;;0.40;99.90;;;;;;5084956;28;20024;-75
2021/10/30 04:37:15;;;;;;;24.13;13.20;;;0.50;99.90;;;;;;5084340;28;20099;-76
2021/10/30 04:39:46;;;;;;;30.25;14.15;;;0.80;99.90;;;;;;5091101;28;20093;-76
2021/10/30 04:42:13;;;;;;;27.45;14.57;;;1.10;99.90;;;;;;5086624;28;20490;-76
2021/10/30 04:44:39;;;;;;;38.85;15.00;;;1.40;99.90;;;;;;5079666;28;20016;-76
2021/10/30 04:47:06;;;;;;;26.33;14.35;;;1.60;99.90;;;;;;5087371;28;20051;-77
2021/10/30 04:49:33;;;;;;;25.73;15.70;;;1.80;99.90;;;;;;5086027;28;20082;-77
2021/10/30 04:51:59;;;;;;;28.58;14.57;;;2.10;99.90;;;;;;5076283;28;20012;-77
2021/10/30 04:54:25;;;;;;;25.08;15.40;;;2.30;99.90;;;;;;5083147;28;20020;-77
2021/10/30 04:56:51;;;;;;;25.23;15.05;;;2.40;99.90;;;;;;5078702;28;20021;-76
2021/10/30 04:59:17;;;;;;;34.28;19.70;;;2.40;99.90;;;;;;5085205;28;20035;-76
2021/10/30 05:01:42;;;;;;;46.53;24.13;;;2.40;99.90;;;;;;5085999;28;20091;-76
2021/10/30 05:04:08;;;;;;;29.30;17.23;;;2.40;99.90;;;;;;5079040;28;20115;-76
2021/10/30 05:06:34;;;;;;;29.95;15.15;;;2.30;99.90;;;;;;5089539;28;20028;-76
2021/10/30 05:08:59;;;;;;;32.47;16.42;;;2.30;99.90;;;;;;5074044;28;20120;-76
2021/10/30 05:11:25;;;;;;;37.20;25.60;;;2.30;99.90;;;;;;5083875;28;20016;-75
2021/10/30 05:13:51;;;;;;;33.88;19.95;;;2.20;99.90;;;;;;5084665;28;20385;-76
2021/10/30 05:16:16;;;;;;;29.92;16.20;;;2.00;99.90;;;;;;5082610;28;20056;-76
2021/10/30 05:18:42;;;;;;;39.67;18.73;;;1.80;99.90;;;;;;5085759;28;20501;-77
2021/10/30 05:21:08;;;;;;;29.80;13.45;;;1.70;99.90;;;;;;5085341;28;20028;-76
2021/10/30 05:23:37;;;;;;;26.63;13.85;;;1.50;99.90;;;;;;5085573;28;20437;-76
2021/10/30 05:26:03;;;;;;;26.17;13.35;;;1.40;99.90;;;;;;5077709;28;20027;-76
2021/10/30 05:28:29;;;;;;;27.00;13.82;;;1.40;99.90;;;;;;5080940;28;20024;-77
2021/10/30 05:30:55;;;;;;;26.88;14.05;;;1.50;99.90;;;;;;5084545;27;20066;-76
2021/10/30 05:33:21;;;;;;;32.10;14.63;;;1.50;99.90;;;;;;5085261;28;20455;-76
2021/10/30 05:35:47;;;;;;;30.75;14.45;;;1.50;99.90;;;;;;5085454;28;20040;-76
2021/10/30 05:38:14;;;;;;;26.80;14.90;;;1.60;99.90;;;;;;5091568;28;20020;-77
2021/10/30 05:40:40;;;;;;;25.92;12.65;;;1.70;99.90;;;;;;5083713;28;20039;-77
2021/10/30 05:43:06;;;;;;;24.02;13.10;;;1.90;99.90;;;;;;5090996;28;20024;-77
2021/10/30 05:45:32;;;;;;;23.35;13.82;;;2.20;99.90;;;;;;5093206;27;20024;-77
2021/10/30 05:47:58;;;;;;;23.95;12.85;;;2.30;99.90;;;;;;5092018;28;20050;-77
2021/10/30 05:50:24;;;;;;;26.00;12.25;;;2.50;99.90;;;;;;5092303;27;20044;-77
2021/10/30 05:52:49;;;;;;;22.52;12.98;;;2.60;99.90;;;;;;5092852;28;20041;-76
2021/10/30 05:55:15;;;;;;;18.67;11.93;;;2.70;99.90;;;;;;5091594;28;20024;-78
2021/10/30 05:57:41;;;;;;;22.40;11.63;;;2.70;99.90;;;;;;5091747;28;20541;-76
2021/10/30 06:00:07;;;;;;;24.67;13.18;;;2.70;99.90;;;;;;5073384;28;20056;-77
2021/10/30 06:02:33;;;;;;;22.55;12.93;;;2.70;99.90;;;;;;5071948;28;20398;-76
2021/10/30 06:04:59;;;;;;;26.27;11.82;;;2.70;99.90;;;;;;5072841;28;20017;-77
2021/10/30 06:07:25;;;;;;;21.83;12.75;;;2.80;99.90;;;;;;5073250;28;20035;-76
2021/10/30 06:09:50;;;;;;;21.40;12.25;;;2.90;99.90;;;;;;5090146;28;20073;-76
2021/10/30 06:12:16;;;;;;;20.65;11.45;;;3.10;99.90;;;;;;5092519;28;20047;-76
2021/10/30 06:14:42;;;;;;;18.90;11.23;;;3.30;99.90;;;;;;5090934;28;20054;-76
2021/10/30 06:17:08;;;;;;;26.45;12.82;;;3.40;99.90;;;;;;5091342;28;20028;-75
2021/10/30 06:19:33;;;;;;;18.75;11.50;;;3.60;99.90;;;;;;5092251;28;20062;-76
2021/10/30 06:21:59;;;;;;;19.73;11.50;;;3.60;99.90;;;;;;5090840;28;20031;-76
2021/10/30 06:24:25;;;;;;;18.27;11.52;;;3.80;99.90;;;;;;5091332;28;20020;-74
2021/10/30 06:26:51;;;;;;;20.67;13.05;;;3.90;99.90;;;;;;5091037;28;20056;-76
2021/10/30 06:29:17;;;;;;;22.30;10.73;;;4.00;99.90;;;;;;5091423;28;20062;-76
2021/10/30 06:31:43;;;;;;;18.45;11.50;;;4.20;99.90;;;;;;5085567;27;20033;-76
2021/10/30 06:34:09;;;;;;;17.45;11.82;;;4.30;99.90;;;;;;5084370;28;20515;-75
2021/10/30 06:36:35;;;;;;;21.73;11.82;;;4.50;98.00;;;;;;5091416;28;20027;-76
2021/10/30 06:39:01;;;;;;;16.50;10.98;;;4.70;96.60;;;;;;5091428;28;20036;-76
2021/10/30 06:41:27;;;;;;;18.67;10.05;;;4.90;96.20;;;;;;5088037;27;20096;-75
2021/10/30 06:43:52;;;;;;;19.67;11.02;;;5.00;94.30;;;;;;5099423;28;20019;-73
2021/10/30 06:46:18;;;;;;;50.55;21.50;;;5.20;93.40;;;;;;5112155;28;20066;-75
2021/10/30 06:48:44;;;;;;;18.25;11.02;;;5.40;92.50;;;;;;5095761;28;20028;-75
2021/10/30 06:51:11;;;;;;;20.85;11.48;;;5.60;89.90;;;;;;5092474;28;20020;-76
2021/10/30 06:53:37;;;;;;;19.48;10.85;;;5.80;89.40;;;;;;5090920;28;20017;-76
2021/10/30 06:56:03;;;;;;;19.15;11.38;;;6.10;89.20;;;;;;5090550;28;20054;-77
2021/10/30 06:58:30;;;;;;;18.48;11.35;;;6.30;87.70;;;;;;5090438;28;20028;-77
2021/10/30 07:00:57;;;;;;;22.70;11.73;;;6.40;86.60;;;;;;5091797;28;20048;-77
2021/10/30 07:03:24;;;;;;;21.30;12.95;;;6.60;84.60;;;;;;5088988;28;20024;-76
2021/10/30 07:05:49;;;;;;;17.08;11.70;;;6.70;83.70;;;;;;5091224;28;20065;-77
2021/10/30 07:08:16;;;;;;;18.88;11.73;;;6.90;82.40;;;;;;5091962;28;20029;-77
2021/10/30 07:10:41;;;;;;;17.20;11.00;;;7.00;81.30;;;;;;5092491;28;20028;-76
2021/10/30 07:13:07;;;;;;;21.55;11.15;;;7.20;80.20;;;;;;5090670;28;20108;-77
2021/10/30 07:15:32;;;;;;;18.30;10.38;;;7.40;78.20;;;;;;5072614;28;20039;-77
2021/10/30 07:17:58;;;;;;;16.67;10.70;;;7.60;78.40;;;;;;5079917;28;20071;-77
2021/10/30 07:20:24;;;;;;;16.13;9.90;;;7.80;77.30;;;;;;5091552;28;20024;-76
2021/10/30 07:22:51;;;;;;;23.60;10.80;;;8.00;76.20;;;;;;5094142;28;20028;-76
2021/10/30 07:25:22;;;;;;;21.27;10.45;;;8.10;78.20;;;;;;5093392;28;20024;-77
2021/10/30 07:27:52;;;;;;;15.95;10.43;;;8.20;77.60;;;;;;5095013;28;20477;-76
2021/10/30 07:30:19;;;;;;;19.83;11.05;;;8.40;76.80;;;;;;5093962;28;20385;-76
2021/10/30 07:32:44;;;;;;;16.25;10.25;;;8.60;75.30;;;;;;5095580;28;20039;-77
2021/10/30 07:35:11;;;;;;;20.38;11.40;;;8.80;71.80;;;;;;5096680;28;20020;-77
2021/10/30 07:37:37;;;;;;;22.40;11.07;;;8.90;70.20;;;;;;5096565;28;20105;-77
2021/10/30 07:40:04;;;;;;;20.45;12.60;;;9.20;67.50;;;;;;5096521;28;20043;-77
2021/10/30 07:42:30;;;;;;;18.45;10.90;;;9.30;66.20;;;;;;5096484;28;20026;-76
2021/10/30 07:44:56;;;;;;;15.95;11.32;;;9.50;66.90;;;;;;5095652;28;20440;-76
2021/10/30 07:47:22;;;;;;;20.55;12.27;;;9.70;65.40;;;;;;5096133;28;20566;-78
2021/10/30 07:49:48;;;;;;;42.40;20.45;;;9.80;66.20;;;;;;5096024;28;20055;-76
2021/10/30 07:52:14;;;;;;;41.67;22.75;;;9.80;67.10;;;;;;5095050;28;20019;-78
2021/10/30 07:54:40;;;;;;;43.70;22.30;;;10.00;66.00;;;;;;5096311;28;20075;-76
2021/10/30 07:57:07;;;;;;;62.88;31.38;;;10.10;64.80;;;;;;5095008;28;20400;-77
2021/10/30 07:59:33;;;;;;;25.98;15.40;;;10.20;64.00;;;;;;5094789;28;20428;-77
2021/10/30 08:02:00;;;;;;;24.17;13.27;;;10.30;64.30;;;;;;5095877;28;20024;-77
2021/10/30 08:04:26;;;;;;;22.73;12.45;;;10.40;63.50;;;;;;5092426;28;20127;-77
2021/10/30 08:06:52;;;;;;;22.35;11.63;;;10.50;62.50;;;;;;5095943;28;20469;-77
2021/10/30 08:09:18;;;;;;;21.88;11.63;;;10.60;63.00;;;;;;5095449;28;20116;-77
2021/10/30 08:11:44;;;;;;;17.60;9.75;;;10.70;62.60;;;;;;5094681;28;20488;-77
2021/10/30 08:14:09;;;;;;;18.73;10.38;;;10.80;62.30;;;;;;5095483;28;20028;-77
2021/10/30 08:16:35;;;;;;;16.05;9.88;;;10.90;62.00;;;;;;5095881;28;19911;-78
2021/10/30 08:19:01;;;;;;;18.35;9.40;;;11.00;61.30;;;;;;5094032;28;20046;-77
2021/10/30 08:21:27;;;;;;;20.95;11.18;;;11.10;60.90;;;;;;5093538;28;20031;-77
2021/10/30 08:23:53;;;;;;;20.92;12.10;;;11.20;59.90;;;;;;5092106;28;20032;-77
2021/10/30 08:26:19;;;;;;;17.10;10.70;;;11.30;60.70;;;;;;5073994;28;20071;-77
2021/10/30 08:28:45;;;;;;;17.42;9.60;;;11.40;59.70;;;;;;5078262;28;20047;-77
2021/10/30 08:31:11;;;;;;;15.05;9.23;;;11.50;59.50;;;;;;5092802;28;20024;-78
2021/10/30 08:33:37;;;;;;;17.17;10.50;;;11.50;59.30;;;;;;5092132;28;20123;-78
2021/10/30 08:36:04;;;;;;;16.17;9.88;;;11.70;59.40;;;;;;5093335;28;20165;-78
2021/10/30 08:38:31;;;;;;;17.45;10.35;;;11.70;59.70;;;;;;5093142;28;20023;-78
2021/10/30 08:40:59;;;;;;;21.17;11.32;;;11.80;59.60;;;;;;5094061;28;20495;-77
2021/10/30 08:43:25;;;;;;;15.90;10.07;;;11.90;60.90;;;;;;5094032;28;20012;-78
2021/10/30 08:45:53;;;;;;;19.60;11.23;;;12.00;60.10;;;;;;5093648;28;20036;-78
2021/10/30 08:48:20;;;;;;;17.83;10.52;;;12.00;60.20;;;;;;5093771;28;20016;-78
2021/10/30 08:50:47;;;;;;;18.55;10.93;;;12.10;59.90;;;;;;5093888;28;20016;-78
2021/10/30 08:53:13;;;;;;;17.75;10.20;;;12.20;59.80;;;;;;5095201;28;20046;-78
2021/10/30 08:55:39;;;;;;;19.70;11.48;;;12.30;58.40;;;;;;5095057;28;20504;-78
2021/10/30 08:58:13;;;;;;;16.63;10.00;;;12.40;58.60;;;;;;5093586;28;20024;-79
2021/10/30 09:00:41;;;;;;;19.33;10.85;;;12.50;58.10;;;;;;5093631;28;20103;-78
2021/10/30 09:03:10;;;;;;;15.55;8.82;;;12.50;58.30;;;;;;5094269;28;20027;-78
2021/10/30 09:05:36;;;;;;;17.70;9.90;;;12.70;57.00;;;;;;5081286;28;20029;-78
2021/10/30 09:08:04;;;;;;;16.13;9.52;;;12.80;57.00;;;;;;5085810;28;20059;-78
2021/10/30 09:10:35;;;;;;;17.25;9.80;;;12.90;56.50;;;;;;5093312;28;20085;-78
2021/10/30 09:13:03;;;;;;;19.83;11.18;;;13.00;55.50;;;;;;5094926;28;20477;-78
2021/10/30 09:15:46;;;;;;;18.77;12.20;;;13.10;55.70;;;;;;5094077;28;20111;-78
2021/10/30 09:18:31;;;;;;;22.35;13.07;;;13.20;55.50;;;;;;5093450;28;20039;-78
2021/10/30 09:21:14;;;;;;;19.02;10.55;;;13.30;56.60;;;;;;5093384;28;20422;-78
2021/10/30 09:23:43;;;;;;;16.35;9.27;;;13.40;55.10;;;;;;5094511;28;20035;-78
2021/10/30 09:26:17;;;;;;;16.00;9.45;;;13.50;54.30;;;;;;5093162;28;20020;-79
2021/10/30 09:28:49;;;;;;;16.73;10.95;;;13.60;54.60;;;;;;5094410;28;20101;-79
2021/10/30 09:31:17;;;;;;;16.52;9.52;;;13.60;55.00;;;;;;5093175;28;20118;-79
2021/10/30 09:33:57;;;;;;;22.23;13.07;;;13.70;55.50;;;;;;5093158;28;20024;-79
2021/10/30 09:36:32;;;;;;;15.88;10.55;;;13.80;55.20;;;;;;5094270;28;20033;-79
2021/10/30 09:39:02;;;;;;;13.73;9.20;;;13.80;54.80;;;;;;5091951;28;20457;-79
2021/10/30 09:41:32;;;;;;;22.65;10.38;;;14.00;55.80;;;;;;5091982;28;20012;-79
2021/10/30 09:44:05;;;;;;;20.05;11.98;;;14.00;55.90;;;;;;5092501;28;20047;-79
2021/10/30 09:46:35;;;;;;;33.78;21.27;;;14.10;55.40;;;;;;5091352;28;20028;-79
2021/10/30 09:49:19;;;;;;;20.88;12.93;;;14.20;54.70;;;;;;5091619;28;20035;-79
2021/10/30 09:51:47;;;;;;;22.63;14.77;;;14.30;53.80;;;;;;5092541;28;20481;-79
2021/10/30 09:54:28;;;;;;;14.20;9.57;;;14.50;52.90;;;;;;5093404;28;20024;-79
2021/10/30 09:56:54;;;;;;;12.90;9.00;;;14.60;53.50;;;;;;5092670;28;20035;-79
2021/10/30 09:59:20;;;;;;;11.02;7.65;;;14.70;52.30;;;;;;5093692;28;20385;-78
2021/10/30 10:01:46;;;;;;;11.70;8.25;;;14.70;51.30;;;;;;5092602;28;20024;-79
2021/10/30 10:04:14;;;;;;;11.10;7.95;;;14.90;51.70;;;;;;5093578;28;20020;-79
2021/10/30 10:06:42;;;;;;;14.65;8.10;;;14.90;51.40;;;;;;5092461;28;20020;-79
2021/10/30 10:09:08;;;;;;;13.73;8.93;;;15.00;51.50;;;;;;5092216;28;20028;-79
2021/10/30 10:11:34;;;;;;;13.98;8.80;;;15.10;50.80;;;;;;5093146;28;20030;-79
2021/10/30 10:14:01;;;;;;;13.68;8.50;;;15.10;52.30;;;;;;5093677;28;20028;-79
2021/10/30 10:16:28;;;;;;;12.75;8.93;;;15.20;51.40;;;;;;5092283;28;20104;-79
2021/10/30 10:18:55;;;;;;;12.32;8.55;;;15.20;51.30;;;;;;5093480;28;20027;-79
2021/10/30 10:21:26;;;;;;;12.10;9.07;;;15.30;51.20;;;;;;5092203;28;20051;-79
2021/10/30 10:23:53;;;;;;;12.15;6.93;;;15.40;52.20;;;;;;5092202;28;20053;-79
2021/10/30 10:26:32;;;;;;;9.43;6.47;;;15.40;51.80;;;;;;5093356;28;20028;-79
2021/10/30 10:29:06;;;;;;;9.85;6.07;;;15.50;50.60;;;;;;5093313;28;20032;-79
2021/10/30 10:31:31;;;;;;;6.32;4.43;;;15.60;48.80;;;;;;5085889;28;20042;-79
2021/10/30 10:34:11;;;;;;;6.07;4.43;;;15.80;46.90;;;;;;5093296;28;20520;-79
2021/10/30 10:36:37;;;;;;;5.63;4.38;;;15.90;47.30;;;;;;5093227;28;20024;-79
2021/10/30 10:39:03;;;;;;;7.45;4.85;;;15.90;46.50;;;;;;5091714;28;20028;-79
2021/10/30 10:41:40;;;;;;;7.68;5.05;;;16.00;46.30;;;;;;5092912;28;20028;-79
2021/10/30 10:44:13;;;;;;;6.63;5.15;;;16.10;46.50;;;;;;5091928;28;20031;-80
2021/10/30 10:46:55;;;;;;;5.93;4.93;;;16.20;45.50;;;;;;5091824;28;20027;-80
2021/10/30 10:49:37;;;;;;;7.67;5.10;;;16.30;46.80;;;;;;5091672;28;20028;-80
2021/10/30 10:52:21;;;;;;;9.15;4.88;;;16.40;45.20;;;;;;5091937;28;20669;-80
2021/10/30 10:57:34;;;;;;;16.85;10.00;;;16.50;45.50;;;;;;5093018;28;20020;-80
2021/10/30 11:00:08;;;;;;;10.32;7.88;;;16.50;46.10;;;;;;5092753;28;20412;-80
2021/10/30 11:02:36;;;;;;;8.95;5.88;;;16.50;46.80;;;;;;5091670;28;20279;-80
2021/10/30 11:05:08;;;;;;;6.95;5.38;;;16.60;44.80;;;;;;5091596;28;20069;-80
2021/10/30 11:07:54;;;;;;;8.30;6.60;;;16.70;45.00;;;;;;5091644;28;20024;-80
2021/10/30 11:10:19;;;;;;;9.43;5.95;;;16.70;45.00;;;;;;5080998;28;20050;-80
2021/10/30 11:13:00;;;;;;;10.23;5.35;;;16.80;45.20;;;;;;5071429;28;20021;-81
2021/10/30 11:15:43;;;;;;;6.85;4.90;;;16.70;45.80;;;;;;5071300;28;20021;-80
2021/10/30 11:18:20;;;;;;;7.03;5.50;;;16.80;45.40;;;;;;5071436;28;20025;-80
2021/10/30 11:21:04;;;;;;;7.07;5.55;;;16.80;46.10;;;;;;5072599;28;20111;-80
2021/10/30 11:23:31;;;;;;;9.00;5.38;;;16.80;45.40;;;;;;5072418;28;20062;-80
2021/10/30 11:26:05;;;;;;;6.88;4.95;;;16.80;45.50;;;;;;5072459;28;20543;-81
2021/10/30 11:28:38;;;;;;;6.95;4.65;;;16.90;45.80;;;;;;5072490;28;20095;-81
2021/10/30 11:31:19;;;;;;;8.63;5.25;;;16.90;45.50;;;;;;5071239;28;20017;-80
2021/10/30 11:33:55;;;;;;;6.60;5.60;;;16.90;46.00;;;;;;5071268;28;20111;-81
2021/10/30 11:36:21;;;;;;;8.85;5.57;;;16.90;45.20;;;;;;5072484;28;20016;-81
2021/10/30 11:38:46;;;;;;;8.50;5.45;;;16.80;46.20;;;;;;5073211;28;20481;-81
2021/10/30 11:41:18;;;;;;;6.93;5.72;;;16.80;46.30;;;;;;5090872;28;20028;-81
2021/10/30 11:43:47;;;;;;;12.82;5.70;;;16.80;46.20;;;;;;5092684;28;20027;-81
2021/10/30 11:46:18;;;;;;;7.15;4.97;;;16.80;46.10;;;;;;5091240;28;20111;-81
2021/10/30 11:48:55;;;;;;;8.90;5.65;;;16.80;46.00;;;;;;5091195;28;20036;-81
2021/10/30 11:51:31;;;;;;;6.25;5.30;;;16.80;46.70;;;;;;5092513;28;20030;-81
2021/10/30 11:53:57;;;;;;;7.38;4.80;;;16.80;45.90;;;;;;5092124;28;20056;-81
2021/10/30 11:56:26;;;;;;;8.07;5.72;;;16.90;46.30;;;;;;5091125;28;20111;-81
2021/10/30 11:58:54;;;;;;;10.23;5.57;;;16.90;45.80;;;;;;5091107;28;20028;-81
2021/10/30 12:01:31;;;;;;;7.13;5.20;;;16.90;46.10;;;;;;5092400;28;20051;-81
2021/10/30 12:04:14;;;;;;;8.30;5.68;;;17.00;45.90;;;;;;5091137;28;20039;-81
2021/10/30 12:06:43;;;;;;;9.52;6.20;;;17.00;46.20;;;;;;5092365;28;20126;-81
2021/10/30 12:09:23;;;;;;;10.55;5.88;;;17.00;45.90;;;;;;5093306;28;20036;-80
2021/10/30 12:11:57;;;;;;;8.32;5.30;;;17.00;46.00;;;;;;5084854;28;20143;-81
2021/10/30 12:14:28;;;;;;;8.82;5.03;;;17.00;45.90;;;;;;5074367;28;20469;-80
2021/10/30 12:17:03;;;;;;;8.70;5.00;;;17.00;45.10;;;;;;5079670;28;20030;-81
2021/10/30 12:19:32;;;;;;;6.88;4.70;;;16.90;46.40;;;;;;5074264;28;20031;-81
2021/10/30 12:22:04;;;;;;;9.77;5.80;;;16.90;45.30;;;;;;5074229;28;20023;-81
2021/10/30 12:24:30;;;;;;;9.07;5.55;;;17.00;45.40;;;;;;5074073;28;20386;-81
2021/10/30 12:26:58;;;;;;;7.40;5.82;;;16.90;45.40;;;;;;5074215;28;20029;-81
2021/10/30 12:29:27;;;;;;;10.43;5.20;;;16.90;46.10;;;;;;5082790;28;20032;-81
2021/10/30 12:32:01;;;;;;;12.95;6.95;;;16.90;45.60;;;;;;5095663;28;20016;-81
2021/10/30 12:34:27;;;;;;;10.32;5.85;;;16.90;45.70;;;;;;5095543;28;20031;-81
2021/10/30 12:36:57;;;;;;;8.95;5.65;;;16.90;45.80;;;;;;5094317;28;20031;-81
2021/10/30 12:39:24;;;;;;;7.50;4.57;;;16.90;45.80;;;;;;5086095;28;20044;-81
2021/10/30 12:42:03;;;;;;;9.32;6.53;;;16.80;47.10;;;;;;5073943;28;20027;-81
2021/10/30 12:44:32;;;;;;;5.57;4.68;;;16.90;45.50;;;;;;5073829;28;20378;-81